sensor_id;sensor_type;location;lat;lon;timestamp;P1;durP1;ratioP1;P2;durP2;ratioP2
67191;SDS011;54120;53.504;49.426;2023-03-19T00:02:01;8.05;;;3.90;;
67191;SDS011;54120;53.504;49.426;2023-03-19T00:04:28;5.25;;;3.20;;
67191;SDS011;54120;53.504;49.426;2023-03-19T00:06:54;6.88;;;3.80;;
67191;SDS011;54120;53.504;49.426;2023-03-19T00:09:21;9.52;;;4.03;;
67191;SDS011;54120;53.504;49.426;2023-03-19T00:11:47;11.77;;;4.50;;
67191;SDS011;54120;53.504;49.426;2023-03-19T00:14:14;7.70;;;3.92;;
67191;SDS011;54120;53.504;49.426;2023-03-19T00:16:41;5.90;;;3.60;;
67191;SDS011;54120;53.504;49.426;2023-03-19T00:19:08;4.97;;;3.63;;
67191;SDS011;54120;53.504;49.426;2023-03-19T00:21:35;8.38;;;4.15;;
67191;SDS011;54120;53.504;49.426;2023-03-19T00:24:01;12.93;;;4.00;;
67191;SDS011;54120;53.504;49.426;2023-03-19T00:26:29;9.40;;;4.00;;
67191;SDS011;54120;53.504;49.426;2023-03-19T00:28:56;10.60;;;4.78;;
67191;SDS011;54120;53.504;49.426;2023-03-19T00:31:23;6.95;;;3.60;;
67191;SDS011;54120;53.504;49.426;2023-03-19T00:33:50;8.68;;;4.40;;
67191;SDS011;54120;53.504;49.426;2023-03-19T00:36:17;8.35;;;4.22;;
67191;SDS011;54120;53.504;49.426;2023-03-19T00:38:45;7.80;;;4.07;;
67191;SDS011;54120;53.504;49.426;2023-03-19T00:41:12;6.05;;;3.45;;
67191;SDS011;54120;53.504;49.426;2023-03-19T00:43:38;8.55;;;3.75;;
67191;SDS011;54120;53.504;49.426;2023-03-19T00:46:05;8.68;;;4.32;;
67191;SDS011;54120;53.504;49.426;2023-03-19T00:48:32;7.75;;;4.10;;
67191;SDS011;54120;53.504;49.426;2023-03-19T00:51:05;7.97;;;4.32;;
67191;SDS011;54120;53.504;49.426;2023-03-19T00:53:37;14.65;;;4.25;;
67191;SDS011;54120;53.504;49.426;2023-03-19T00:56:05;3.90;;;2.60;;
67191;SDS011;54120;53.504;49.426;2023-03-19T00:58:32;7.70;;;3.70;;
67191;SDS011;54120;53.504;49.426;2023-03-19T01:00:59;6.60;;;3.75;;
67191;SDS011;54120;53.504;49.426;2023-03-19T01:03:26;7.95;;;4.57;;
67191;SDS011;54120;53.504;49.426;2023-03-19T01:05:53;5.78;;;3.78;;
67191;SDS011;54120;53.504;49.426;2023-03-19T01:08:19;5.65;;;3.08;;
67191;SDS011;54120;53.504;49.426;2023-03-19T01:10:45;6.22;;;3.60;;
67191;SDS011;54120;53.504;49.426;2023-03-19T01:15:24;4.35;;;2.72;;
67191;SDS011;54120;53.504;49.426;2023-03-19T01:17:51;4.97;;;3.40;;
67191;SDS011;54120;53.504;49.426;2023-03-19T01:20:17;8.18;;;3.70;;
67191;SDS011;54120;53.504;49.426;2023-03-19T01:22:44;8.38;;;4.22;;
67191;SDS011;54120;53.504;49.426;2023-03-19T01:25:11;5.15;;;3.22;;
67191;SDS011;54120;53.504;49.426;2023-03-19T01:27:38;5.95;;;3.80;;
67191;SDS011;54120;53.504;49.426;2023-03-19T01:30:05;5.95;;;3.80;;
67191;SDS011;54120;53.504;49.426;2023-03-19T01:32:32;6.18;;;3.33;;
67191;SDS011;54120;53.504;49.426;2023-03-19T01:34:58;6.82;;;3.53;;
67191;SDS011;54120;53.504;49.426;2023-03-19T01:37:25;7.63;;;3.78;;
67191;SDS011;54120;53.504;49.426;2023-03-19T01:39:51;4.75;;;3.65;;
67191;SDS011;54120;53.504;49.426;2023-03-19T01:42:17;6.60;;;3.55;;
67191;SDS011;54120;53.504;49.426;2023-03-19T01:44:43;6.25;;;3.30;;
67191;SDS011;54120;53.504;49.426;2023-03-19T01:47:13;6.28;;;3.75;;
67191;SDS011;54120;53.504;49.426;2023-03-19T01:50:00;5.15;;;2.67;;
67191;SDS011;54120;53.504;49.426;2023-03-19T01:52:28;8.80;;;3.58;;
67191;SDS011;54120;53.504;49.426;2023-03-19T01:54:57;6.20;;;3.67;;
67191;SDS011;54120;53.504;49.426;2023-03-19T01:57:26;8.20;;;3.92;;
67191;SDS011;54120;53.504;49.426;2023-03-19T01:59:55;6.03;;;3.50;;
67191;SDS011;54120;53.504;49.426;2023-03-19T02:02:26;7.15;;;3.53;;
67191;SDS011;54120;53.504;49.426;2023-03-19T02:04:57;6.43;;;3.55;;
67191;SDS011;54120;53.504;49.426;2023-03-19T02:07:28;5.03;;;3.40;;
67191;SDS011;54120;53.504;49.426;2023-03-19T02:09:56;3.83;;;2.83;;
67191;SDS011;54120;53.504;49.426;2023-03-19T02:12:25;3.13;;;1.92;;
67191;SDS011;54120;53.504;49.426;2023-03-19T02:14:52;3.53;;;2.15;;
67191;SDS011;54120;53.504;49.426;2023-03-19T02:17:19;3.58;;;2.08;;
67191;SDS011;54120;53.504;49.426;2023-03-19T02:22:31;2.60;;;2.03;;
67191;SDS011;54120;53.504;49.426;2023-03-19T02:25:00;1.90;;;1.70;;
67191;SDS011;54120;53.504;49.426;2023-03-19T02:27:31;2.40;;;1.92;;
67191;SDS011;54120;53.504;49.426;2023-03-19T02:29:57;2.17;;;1.40;;
67191;SDS011;54120;53.504;49.426;2023-03-19T02:32:23;2.35;;;1.90;;
67191;SDS011;54120;53.504;49.426;2023-03-19T02:34:50;3.58;;;1.80;;
67191;SDS011;54120;53.504;49.426;2023-03-19T02:37:27;1.80;;;1.67;;
67191;SDS011;54120;53.504;49.426;2023-03-19T02:40:06;2.33;;;1.88;;
67191;SDS011;54120;53.504;49.426;2023-03-19T02:42:36;1.50;;;1.40;;
67191;SDS011;54120;53.504;49.426;2023-03-19T02:45:02;1.67;;;1.58;;
67191;SDS011;54120;53.504;49.426;2023-03-19T02:47:29;2.50;;;1.40;;
67191;SDS011;54120;53.504;49.426;2023-03-19T02:49:55;1.88;;;1.63;;
67191;SDS011;54120;53.504;49.426;2023-03-19T02:52:21;5.63;;;1.85;;
67191;SDS011;54120;53.504;49.426;2023-03-19T02:54:48;2.17;;;2.03;;
67191;SDS011;54120;53.504;49.426;2023-03-19T02:57:15;1.30;;;1.20;;
67191;SDS011;54120;53.504;49.426;2023-03-19T02:59:41;3.80;;;1.77;;
67191;SDS011;54120;53.504;49.426;2023-03-19T03:02:07;1.52;;;1.33;;
67191;SDS011;54120;53.504;49.426;2023-03-19T03:04:34;1.80;;;1.50;;
67191;SDS011;54120;53.504;49.426;2023-03-19T03:07:02;2.38;;;1.85;;
67191;SDS011;54120;53.504;49.426;2023-03-19T03:09:34;1.50;;;1.40;;
67191;SDS011;54120;53.504;49.426;2023-03-19T03:12:01;3.20;;;2.00;;
67191;SDS011;54120;53.504;49.426;2023-03-19T03:14:27;2.47;;;1.85;;
67191;SDS011;54120;53.504;49.426;2023-03-19T03:16:54;2.67;;;1.77;;
67191;SDS011;54120;53.504;49.426;2023-03-19T03:19:22;4.07;;;2.10;;
67191;SDS011;54120;53.504;49.426;2023-03-19T03:21:48;2.88;;;1.88;;
67191;SDS011;54120;53.504;49.426;2023-03-19T03:24:14;3.22;;;2.45;;
67191;SDS011;54120;53.504;49.426;2023-03-19T03:26:40;4.53;;;2.70;;
67191;SDS011;54120;53.504;49.426;2023-03-19T03:29:07;5.50;;;2.83;;
67191;SDS011;54120;53.504;49.426;2023-03-19T03:31:33;4.20;;;2.30;;
67191;SDS011;54120;53.504;49.426;2023-03-19T03:34:00;3.58;;;2.55;;
67191;SDS011;54120;53.504;49.426;2023-03-19T03:36:26;8.65;;;2.78;;
67191;SDS011;54120;53.504;49.426;2023-03-19T03:38:53;3.97;;;2.80;;
67191;SDS011;54120;53.504;49.426;2023-03-19T03:41:19;6.90;;;2.90;;
67191;SDS011;54120;53.504;49.426;2023-03-19T03:43:46;6.28;;;3.65;;
67191;SDS011;54120;53.504;49.426;2023-03-19T03:46:13;5.43;;;2.90;;
67191;SDS011;54120;53.504;49.426;2023-03-19T03:48:39;6.50;;;3.08;;
67191;SDS011;54120;53.504;49.426;2023-03-19T03:51:05;4.30;;;2.78;;
67191;SDS011;54120;53.504;49.426;2023-03-19T03:53:32;6.05;;;2.90;;
67191;SDS011;54120;53.504;49.426;2023-03-19T03:55:58;5.00;;;2.88;;
67191;SDS011;54120;53.504;49.426;2023-03-19T03:58:30;6.03;;;3.28;;
67191;SDS011;54120;53.504;49.426;2023-03-19T04:00:56;5.15;;;3.55;;
67191;SDS011;54120;53.504;49.426;2023-03-19T04:03:23;7.20;;;3.63;;
67191;SDS011;54120;53.504;49.426;2023-03-19T04:05:49;7.72;;;4.10;;
67191;SDS011;54120;53.504;49.426;2023-03-19T04:08:17;7.30;;;3.95;;
67191;SDS011;54120;53.504;49.426;2023-03-19T04:10:43;6.05;;;4.00;;
67191;SDS011;54120;53.504;49.426;2023-03-19T04:13:10;6.22;;;3.78;;
67191;SDS011;54120;53.504;49.426;2023-03-19T04:15:37;8.77;;;4.07;;
67191;SDS011;54120;53.504;49.426;2023-03-19T04:18:04;8.82;;;4.40;;
67191;SDS011;54120;53.504;49.426;2023-03-19T04:20:30;6.47;;;3.97;;
67191;SDS011;54120;53.504;49.426;2023-03-19T04:22:57;6.15;;;3.67;;
67191;SDS011;54120;53.504;49.426;2023-03-19T04:25:23;7.03;;;3.70;;
67191;SDS011;54120;53.504;49.426;2023-03-19T04:27:49;7.63;;;4.15;;
67191;SDS011;54120;53.504;49.426;2023-03-19T04:30:16;7.32;;;4.03;;
67191;SDS011;54120;53.504;49.426;2023-03-19T04:32:42;9.68;;;4.22;;
67191;SDS011;54120;53.504;49.426;2023-03-19T04:35:09;6.57;;;3.60;;
67191;SDS011;54120;53.504;49.426;2023-03-19T04:37:35;8.25;;;3.95;;
67191;SDS011;54120;53.504;49.426;2023-03-19T04:40:02;11.35;;;4.03;;
67191;SDS011;54120;53.504;49.426;2023-03-19T04:42:28;5.35;;;3.40;;
67191;SDS011;54120;53.504;49.426;2023-03-19T04:44:55;9.45;;;4.18;;
67191;SDS011;54120;53.504;49.426;2023-03-19T04:47:22;9.90;;;4.50;;
67191;SDS011;54120;53.504;49.426;2023-03-19T04:49:48;7.05;;;4.05;;
67191;SDS011;54120;53.504;49.426;2023-03-19T04:52:14;4.68;;;3.38;;
67191;SDS011;54120;53.504;49.426;2023-03-19T04:54:40;6.60;;;3.38;;
67191;SDS011;54120;53.504;49.426;2023-03-19T04:57:07;5.95;;;2.28;;
67191;SDS011;54120;53.504;49.426;2023-03-19T04:59:33;5.55;;;2.58;;
67191;SDS011;54120;53.504;49.426;2023-03-19T05:02:00;2.10;;;1.90;;
67191;SDS011;54120;53.504;49.426;2023-03-19T05:04:26;3.50;;;2.00;;
67191;SDS011;54120;53.504;49.426;2023-03-19T05:06:52;3.60;;;2.38;;
67191;SDS011;54120;53.504;49.426;2023-03-19T05:09:19;11.00;;;2.13;;
67191;SDS011;54120;53.504;49.426;2023-03-19T05:11:45;2.13;;;1.92;;
67191;SDS011;54120;53.504;49.426;2023-03-19T05:14:11;2.30;;;1.75;;
67191;SDS011;54120;53.504;49.426;2023-03-19T05:16:37;2.60;;;1.65;;
67191;SDS011;54120;53.504;49.426;2023-03-19T05:19:04;1.80;;;1.70;;
67191;SDS011;54120;53.504;49.426;2023-03-19T05:21:30;3.60;;;1.85;;
67191;SDS011;54120;53.504;49.426;2023-03-19T05:23:57;2.65;;;1.90;;
67191;SDS011;54120;53.504;49.426;2023-03-19T05:26:23;2.30;;;1.85;;
67191;SDS011;54120;53.504;49.426;2023-03-19T05:28:50;3.33;;;1.85;;
67191;SDS011;54120;53.504;49.426;2023-03-19T05:35:27;2.08;;;1.88;;
67191;SDS011;54120;53.504;49.426;2023-03-19T05:41:08;2.53;;;1.90;;
67191;SDS011;54120;53.504;49.426;2023-03-19T05:43:35;3.08;;;1.75;;
67191;SDS011;54120;53.504;49.426;2023-03-19T05:46:01;2.47;;;2.28;;
67191;SDS011;54120;53.504;49.426;2023-03-19T05:48:28;1.60;;;1.45;;
67191;SDS011;54120;53.504;49.426;2023-03-19T05:50:54;1.73;;;1.63;;
67191;SDS011;54120;53.504;49.426;2023-03-19T05:53:21;3.83;;;1.92;;
67191;SDS011;54120;53.504;49.426;2023-03-19T05:55:47;3.05;;;1.90;;
67191;SDS011;54120;53.504;49.426;2023-03-19T05:58:14;1.95;;;1.70;;
67191;SDS011;54120;53.504;49.426;2023-03-19T06:00:41;2.45;;;1.67;;
67191;SDS011;54120;53.504;49.426;2023-03-19T06:03:07;3.95;;;1.90;;
67191;SDS011;54120;53.504;49.426;2023-03-19T06:05:34;3.00;;;1.73;;
67191;SDS011;54120;53.504;49.426;2023-03-19T06:08:00;3.58;;;1.92;;
67191;SDS011;54120;53.504;49.426;2023-03-19T06:10:26;1.80;;;1.67;;
67191;SDS011;54120;53.504;49.426;2023-03-19T06:12:53;2.38;;;1.90;;
67191;SDS011;54120;53.504;49.426;2023-03-19T06:15:19;1.83;;;1.65;;
67191;SDS011;54120;53.504;49.426;2023-03-19T06:19:35;2.15;;;1.80;;
67191;SDS011;54120;53.504;49.426;2023-03-19T06:22:02;4.15;;;1.67;;
67191;SDS011;54120;53.504;49.426;2023-03-19T06:24:28;4.85;;;2.10;;
67191;SDS011;54120;53.504;49.426;2023-03-19T06:26:55;2.35;;;2.00;;
67191;SDS011;54120;53.504;49.426;2023-03-19T06:29:21;2.33;;;1.70;;
67191;SDS011;54120;53.504;49.426;2023-03-19T06:31:47;4.20;;;2.08;;
67191;SDS011;54120;53.504;49.426;2023-03-19T06:34:14;2.03;;;1.70;;
67191;SDS011;54120;53.504;49.426;2023-03-19T06:36:40;1.92;;;1.83;;
67191;SDS011;54120;53.504;49.426;2023-03-19T06:39:06;2.10;;;1.90;;
67191;SDS011;54120;53.504;49.426;2023-03-19T06:41:33;3.15;;;1.77;;
67191;SDS011;54120;53.504;49.426;2023-03-19T06:44:00;4.13;;;2.03;;
67191;SDS011;54120;53.504;49.426;2023-03-19T06:46:27;5.28;;;2.10;;
67191;SDS011;54120;53.504;49.426;2023-03-19T06:48:53;2.20;;;2.00;;
67191;SDS011;54120;53.504;49.426;2023-03-19T06:51:19;4.43;;;2.30;;
67191;SDS011;54120;53.504;49.426;2023-03-19T06:53:46;3.80;;;2.10;;
67191;SDS011;54120;53.504;49.426;2023-03-19T06:56:17;3.08;;;2.20;;
67191;SDS011;54120;53.504;49.426;2023-03-19T06:58:43;9.40;;;2.40;;
67191;SDS011;54120;53.504;49.426;2023-03-19T07:01:10;5.13;;;2.30;;
67191;SDS011;54120;53.504;49.426;2023-03-19T07:03:36;3.10;;;2.15;;
67191;SDS011;54120;53.504;49.426;2023-03-19T07:06:02;2.33;;;2.05;;
67191;SDS011;54120;53.504;49.426;2023-03-19T07:08:29;3.25;;;2.30;;
67191;SDS011;54120;53.504;49.426;2023-03-19T07:10:56;5.50;;;2.53;;
67191;SDS011;54120;53.504;49.426;2023-03-19T07:13:27;3.15;;;2.47;;
67191;SDS011;54120;53.504;49.426;2023-03-19T07:15:53;4.38;;;2.40;;
67191;SDS011;54120;53.504;49.426;2023-03-19T07:18:20;3.50;;;2.30;;
67191;SDS011;54120;53.504;49.426;2023-03-19T07:20:46;7.10;;;3.00;;
67191;SDS011;54120;53.504;49.426;2023-03-19T07:23:12;6.05;;;2.75;;
67191;SDS011;54120;53.504;49.426;2023-03-19T07:25:39;3.90;;;2.67;;
67191;SDS011;54120;53.504;49.426;2023-03-19T07:28:06;3.67;;;2.75;;
67191;SDS011;54120;53.504;49.426;2023-03-19T07:30:33;8.25;;;2.88;;
67191;SDS011;54120;53.504;49.426;2023-03-19T07:33:00;3.33;;;2.60;;
67191;SDS011;54120;53.504;49.426;2023-03-19T07:35:26;4.50;;;2.90;;
67191;SDS011;54120;53.504;49.426;2023-03-19T07:37:53;4.35;;;3.05;;
67191;SDS011;54120;53.504;49.426;2023-03-19T07:40:19;4.20;;;3.22;;
67191;SDS011;54120;53.504;49.426;2023-03-19T07:42:46;3.50;;;3.08;;
67191;SDS011;54120;53.504;49.426;2023-03-19T07:45:12;4.03;;;3.40;;
67191;SDS011;54120;53.504;49.426;2023-03-19T07:47:39;6.45;;;3.03;;
67191;SDS011;54120;53.504;49.426;2023-03-19T07:50:05;3.80;;;3.00;;
67191;SDS011;54120;53.504;49.426;2023-03-19T07:52:33;5.03;;;3.10;;
67191;SDS011;54120;53.504;49.426;2023-03-19T07:54:59;5.97;;;3.58;;
67191;SDS011;54120;53.504;49.426;2023-03-19T07:57:26;8.60;;;3.60;;
67191;SDS011;54120;53.504;49.426;2023-03-19T07:59:52;9.00;;;3.60;;
67191;SDS011;54120;53.504;49.426;2023-03-19T08:02:19;4.03;;;3.63;;
67191;SDS011;54120;53.504;49.426;2023-03-19T08:04:47;3.60;;;3.20;;
67191;SDS011;54120;53.504;49.426;2023-03-19T08:07:13;3.92;;;3.53;;
67191;SDS011;54120;53.504;49.426;2023-03-19T08:09:40;5.65;;;3.63;;
67191;SDS011;54120;53.504;49.426;2023-03-19T08:12:07;4.50;;;3.67;;
67191;SDS011;54120;53.504;49.426;2023-03-19T08:14:33;4.65;;;3.75;;
67191;SDS011;54120;53.504;49.426;2023-03-19T08:17:00;5.72;;;4.28;;
67191;SDS011;54120;53.504;49.426;2023-03-19T08:19:26;4.63;;;3.65;;
67191;SDS011;54120;53.504;49.426;2023-03-19T08:21:52;5.25;;;3.35;;
67191;SDS011;54120;53.504;49.426;2023-03-19T08:24:19;3.88;;;3.15;;
67191;SDS011;54120;53.504;49.426;2023-03-19T08:26:45;4.85;;;3.60;;
67191;SDS011;54120;53.504;49.426;2023-03-19T08:29:12;8.30;;;4.00;;
67191;SDS011;54120;53.504;49.426;2023-03-19T08:31:38;4.80;;;3.45;;
67191;SDS011;54120;53.504;49.426;2023-03-19T08:34:04;12.73;;;4.57;;
67191;SDS011;54120;53.504;49.426;2023-03-19T08:36:33;4.57;;;3.15;;
67191;SDS011;54120;53.504;49.426;2023-03-19T08:38:59;6.35;;;3.78;;
67191;SDS011;54120;53.504;49.426;2023-03-19T08:41:25;4.00;;;3.40;;
67191;SDS011;54120;53.504;49.426;2023-03-19T08:43:52;6.50;;;4.30;;
67191;SDS011;54120;53.504;49.426;2023-03-19T08:46:18;6.28;;;4.35;;
67191;SDS011;54120;53.504;49.426;2023-03-19T08:48:44;6.80;;;4.18;;
67191;SDS011;54120;53.504;49.426;2023-03-19T08:51:11;7.13;;;4.00;;
67191;SDS011;54120;53.504;49.426;2023-03-19T08:53:37;7.03;;;4.00;;
67191;SDS011;54120;53.504;49.426;2023-03-19T08:56:04;6.35;;;3.92;;
67191;SDS011;54120;53.504;49.426;2023-03-19T08:58:32;4.68;;;3.58;;
67191;SDS011;54120;53.504;49.426;2023-03-19T09:01:03;6.60;;;3.85;;
67191;SDS011;54120;53.504;49.426;2023-03-19T09:03:30;5.93;;;3.60;;
67191;SDS011;54120;53.504;49.426;2023-03-19T09:06:00;7.88;;;4.32;;
67191;SDS011;54120;53.504;49.426;2023-03-19T09:08:27;4.97;;;3.53;;
67191;SDS011;54120;53.504;49.426;2023-03-19T09:10:55;5.32;;;3.67;;
67191;SDS011;54120;53.504;49.426;2023-03-19T09:13:22;7.30;;;3.67;;
67191;SDS011;54120;53.504;49.426;2023-03-19T09:15:49;5.45;;;3.88;;
67191;SDS011;54120;53.504;49.426;2023-03-19T09:18:16;6.63;;;3.67;;
67191;SDS011;54120;53.504;49.426;2023-03-19T09:20:48;9.85;;;4.85;;
67191;SDS011;54120;53.504;49.426;2023-03-19T09:23:14;8.43;;;3.90;;
67191;SDS011;54120;53.504;49.426;2023-03-19T09:25:41;4.50;;;3.70;;
67191;SDS011;54120;53.504;49.426;2023-03-19T09:28:07;8.27;;;3.50;;
67191;SDS011;54120;53.504;49.426;2023-03-19T09:30:34;8.95;;;4.15;;
67191;SDS011;54120;53.504;49.426;2023-03-19T09:33:01;5.00;;;4.15;;
67191;SDS011;54120;53.504;49.426;2023-03-19T09:35:28;7.15;;;4.22;;
67191;SDS011;54120;53.504;49.426;2023-03-19T09:37:56;7.43;;;3.72;;
67191;SDS011;54120;53.504;49.426;2023-03-19T09:40:27;5.30;;;3.88;;
67191;SDS011;54120;53.504;49.426;2023-03-19T09:45:41;5.30;;;4.20;;
67191;SDS011;54120;53.504;49.426;2023-03-19T09:48:14;6.85;;;4.10;;
67191;SDS011;54120;53.504;49.426;2023-03-19T09:50:59;9.07;;;4.45;;
67191;SDS011;54120;53.504;49.426;2023-03-19T09:56:23;10.65;;;3.83;;
67191;SDS011;54120;53.504;49.426;2023-03-19T09:58:51;10.00;;;3.95;;
67191;SDS011;54120;53.504;49.426;2023-03-19T10:01:25;8.05;;;4.07;;
67191;SDS011;54120;53.504;49.426;2023-03-19T10:04:01;6.82;;;4.03;;
67191;SDS011;54120;53.504;49.426;2023-03-19T10:06:44;11.38;;;5.50;;
67191;SDS011;54120;53.504;49.426;2023-03-19T10:16:58;6.32;;;3.70;;
67191;SDS011;54120;53.504;49.426;2023-03-19T10:19:40;7.40;;;3.60;;
67191;SDS011;54120;53.504;49.426;2023-03-19T10:22:23;7.72;;;3.60;;
67191;SDS011;54120;53.504;49.426;2023-03-19T10:25:00;6.72;;;3.60;;
67191;SDS011;54120;53.504;49.426;2023-03-19T10:27:27;6.25;;;3.30;;
67191;SDS011;54120;53.504;49.426;2023-03-19T10:29:54;5.53;;;3.55;;
67191;SDS011;54120;53.504;49.426;2023-03-19T10:32:37;7.28;;;3.47;;
67191;SDS011;54120;53.504;49.426;2023-03-19T10:43:55;6.10;;;3.60;;
67191;SDS011;54120;53.504;49.426;2023-03-19T10:46:26;4.65;;;3.45;;
67191;SDS011;54120;53.504;49.426;2023-03-19T10:48:52;12.25;;;3.88;;
67191;SDS011;54120;53.504;49.426;2023-03-19T10:51:22;20.80;;;4.30;;
67191;SDS011;54120;53.504;49.426;2023-03-19T10:53:52;6.25;;;3.50;;
67191;SDS011;54120;53.504;49.426;2023-03-19T10:56:21;8.68;;;4.22;;
67191;SDS011;54120;53.504;49.426;2023-03-19T10:58:56;4.70;;;3.40;;
67191;SDS011;54120;53.504;49.426;2023-03-19T11:01:45;6.13;;;3.65;;
67191;SDS011;54120;53.504;49.426;2023-03-19T11:04:29;4.97;;;3.25;;
67191;SDS011;54120;53.504;49.426;2023-03-19T11:07:10;5.88;;;3.30;;
67191;SDS011;54120;53.504;49.426;2023-03-19T11:09:39;6.18;;;3.25;;
67191;SDS011;54120;53.504;49.426;2023-03-19T11:12:14;10.55;;;4.30;;
67191;SDS011;54120;53.504;49.426;2023-03-19T11:14:45;8.15;;;3.60;;
67191;SDS011;54120;53.504;49.426;2023-03-19T11:19:52;7.97;;;3.95;;
67191;SDS011;54120;53.504;49.426;2023-03-19T11:22:28;9.07;;;4.07;;
67191;SDS011;54120;53.504;49.426;2023-03-19T11:24:59;7.25;;;4.10;;
67191;SDS011;54120;53.504;49.426;2023-03-19T11:27:31;5.47;;;3.90;;
67191;SDS011;54120;53.504;49.426;2023-03-19T11:30:00;6.75;;;3.80;;
67191;SDS011;54120;53.504;49.426;2023-03-19T11:32:39;5.85;;;4.38;;
67191;SDS011;54120;53.504;49.426;2023-03-19T11:35:20;7.43;;;3.85;;
67191;SDS011;54120;53.504;49.426;2023-03-19T11:40:33;13.15;;;4.35;;
67191;SDS011;54120;53.504;49.426;2023-03-19T11:48:30;11.35;;;4.68;;
67191;SDS011;54120;53.504;49.426;2023-03-19T11:53:52;8.00;;;4.20;;
67191;SDS011;54120;53.504;49.426;2023-03-19T12:15:57;13.65;;;6.80;;
67191;SDS011;54120;53.504;49.426;2023-03-19T12:24:05;8.80;;;5.95;;
67191;SDS011;54120;53.504;49.426;2023-03-19T12:26:39;9.30;;;6.72;;
67191;SDS011;54120;53.504;49.426;2023-03-19T12:35:17;15.25;;;7.90;;
67191;SDS011;54120;53.504;49.426;2023-03-19T12:40:56;12.38;;;7.95;;
67191;SDS011;54120;53.504;49.426;2023-03-19T12:43:48;16.42;;;8.05;;
67191;SDS011;54120;53.504;49.426;2023-03-19T12:46:25;15.10;;;8.85;;
67191;SDS011;54120;53.504;49.426;2023-03-19T12:49:22;12.07;;;8.77;;
67191;SDS011;54120;53.504;49.426;2023-03-19T12:51:57;13.75;;;7.65;;
67191;SDS011;54120;53.504;49.426;2023-03-19T12:54:28;16.60;;;8.65;;
67191;SDS011;54120;53.504;49.426;2023-03-19T12:57:05;12.32;;;7.35;;
67191;SDS011;54120;53.504;49.426;2023-03-19T12:59:49;13.38;;;8.82;;
67191;SDS011;54120;53.504;49.426;2023-03-19T13:05:08;11.63;;;8.93;;
67191;SDS011;54120;53.504;49.426;2023-03-19T13:07:54;11.48;;;9.10;;
67191;SDS011;54120;53.504;49.426;2023-03-19T13:10:23;13.30;;;10.05;;
67191;SDS011;54120;53.504;49.426;2023-03-19T13:12:50;13.85;;;9.98;;
67191;SDS011;54120;53.504;49.426;2023-03-19T13:15:38;16.20;;;10.88;;
67191;SDS011;54120;53.504;49.426;2023-03-19T13:18:29;14.85;;;10.43;;
67191;SDS011;54120;53.504;49.426;2023-03-19T13:21:30;16.75;;;11.77;;
67191;SDS011;54120;53.504;49.426;2023-03-19T13:26:32;17.50;;;11.52;;
67191;SDS011;54120;53.504;49.426;2023-03-19T13:29:07;16.65;;;11.63;;
67191;SDS011;54120;53.504;49.426;2023-03-19T13:31:42;23.80;;;13.15;;
67191;SDS011;54120;53.504;49.426;2023-03-19T13:36:45;19.35;;;12.95;;
67191;SDS011;54120;53.504;49.426;2023-03-19T13:39:18;18.25;;;12.52;;
67191;SDS011;54120;53.504;49.426;2023-03-19T13:41:49;20.05;;;12.07;;
67191;SDS011;54120;53.504;49.426;2023-03-19T13:46:47;27.83;;;13.80;;
67191;SDS011;54120;53.504;49.426;2023-03-19T13:51:57;20.80;;;13.85;;
67191;SDS011;54120;53.504;49.426;2023-03-19T13:57:04;20.93;;;14.70;;
67191;SDS011;54120;53.504;49.426;2023-03-19T13:59:40;20.80;;;14.48;;
67191;SDS011;54120;53.504;49.426;2023-03-19T14:07:20;24.75;;;15.40;;
67191;SDS011;54120;53.504;49.426;2023-03-19T14:12:34;22.33;;;15.70;;
67191;SDS011;54120;53.504;49.426;2023-03-19T14:17:58;22.80;;;14.73;;
67191;SDS011;54120;53.504;49.426;2023-03-19T14:20:27;28.08;;;15.52;;
67191;SDS011;54120;53.504;49.426;2023-03-19T14:23:10;21.20;;;14.07;;
67191;SDS011;54120;53.504;49.426;2023-03-19T14:25:57;24.70;;;15.57;;
67191;SDS011;54120;53.504;49.426;2023-03-19T14:31:17;32.47;;;17.08;;
67191;SDS011;54120;53.504;49.426;2023-03-19T14:33:45;25.42;;;17.60;;
67191;SDS011;54120;53.504;49.426;2023-03-19T14:36:27;23.23;;;16.52;;
67191;SDS011;54120;53.504;49.426;2023-03-19T14:39:11;22.17;;;15.93;;
67191;SDS011;54120;53.504;49.426;2023-03-19T14:41:59;27.60;;;17.38;;
67191;SDS011;54120;53.504;49.426;2023-03-19T14:47:44;26.15;;;18.70;;
67191;SDS011;54120;53.504;49.426;2023-03-19T14:55:51;26.42;;;19.48;;
67191;SDS011;54120;53.504;49.426;2023-03-19T14:58:18;28.85;;;18.85;;
67191;SDS011;54120;53.504;49.426;2023-03-19T15:00:50;27.52;;;18.27;;
67191;SDS011;54120;53.504;49.426;2023-03-19T15:03:28;25.33;;;18.38;;
67191;SDS011;54120;53.504;49.426;2023-03-19T15:06:00;22.65;;;16.95;;
67191;SDS011;54120;53.504;49.426;2023-03-19T15:08:30;23.10;;;16.98;;
67191;SDS011;54120;53.504;49.426;2023-03-19T15:21:23;20.98;;;15.52;;
67191;SDS011;54120;53.504;49.426;2023-03-19T15:23:50;20.58;;;14.55;;
67191;SDS011;54120;53.504;49.426;2023-03-19T15:26:28;22.33;;;15.98;;
67191;SDS011;54120;53.504;49.426;2023-03-19T15:28:59;24.42;;;17.95;;
67191;SDS011;54120;53.504;49.426;2023-03-19T15:31:45;20.10;;;17.08;;
67191;SDS011;54120;53.504;49.426;2023-03-19T15:34:16;21.88;;;16.63;;
67191;SDS011;54120;53.504;49.426;2023-03-19T15:36:48;23.50;;;16.58;;
67191;SDS011;54120;53.504;49.426;2023-03-19T15:39:23;18.92;;;14.60;;
67191;SDS011;54120;53.504;49.426;2023-03-19T15:41:53;13.85;;;11.48;;
67191;SDS011;54120;53.504;49.426;2023-03-19T15:44:25;14.70;;;12.05;;
67191;SDS011;54120;53.504;49.426;2023-03-19T15:47:07;15.95;;;12.40;;
67191;SDS011;54120;53.504;49.426;2023-03-19T15:49:38;17.88;;;13.50;;
67191;SDS011;54120;53.504;49.426;2023-03-19T15:52:10;19.55;;;14.73;;
67191;SDS011;54120;53.504;49.426;2023-03-19T15:54:38;14.90;;;12.48;;
67191;SDS011;54120;53.504;49.426;2023-03-19T15:57:06;16.13;;;13.27;;
67191;SDS011;54120;53.504;49.426;2023-03-19T15:59:34;18.45;;;13.10;;
67191;SDS011;54120;53.504;49.426;2023-03-19T16:02:02;12.23;;;10.80;;
67191;SDS011;54120;53.504;49.426;2023-03-19T16:04:38;15.70;;;12.70;;
67191;SDS011;54120;53.504;49.426;2023-03-19T16:07:04;14.95;;;12.20;;
67191;SDS011;54120;53.504;49.426;2023-03-19T16:09:32;15.80;;;11.80;;
67191;SDS011;54120;53.504;49.426;2023-03-19T16:11:59;22.52;;;13.70;;
67191;SDS011;54120;53.504;49.426;2023-03-19T16:16:59;19.95;;;11.93;;
67191;SDS011;54120;53.504;49.426;2023-03-19T16:21:59;17.20;;;12.55;;
67191;SDS011;54120;53.504;49.426;2023-03-19T16:24:27;17.73;;;12.23;;
67191;SDS011;54120;53.504;49.426;2023-03-19T16:27:00;14.43;;;10.95;;
67191;SDS011;54120;53.504;49.426;2023-03-19T16:32:02;13.18;;;11.02;;
67191;SDS011;54120;53.504;49.426;2023-03-19T16:34:50;14.73;;;11.00;;
67191;SDS011;54120;53.504;49.426;2023-03-19T16:42:39;12.60;;;10.32;;
67191;SDS011;54120;53.504;49.426;2023-03-19T16:47:53;17.05;;;11.13;;
67191;SDS011;54120;53.504;49.426;2023-03-19T16:50:25;15.57;;;10.30;;
67191;SDS011;54120;53.504;49.426;2023-03-19T16:53:04;14.95;;;11.07;;
67191;SDS011;54120;53.504;49.426;2023-03-19T16:55:37;12.57;;;10.90;;
67191;SDS011;54120;53.504;49.426;2023-03-19T16:58:46;11.77;;;10.52;;
67191;SDS011;54120;53.504;49.426;2023-03-19T17:00:59;14.18;;;10.88;;
67191;SDS011;54120;53.504;49.426;2023-03-19T17:03:26;14.10;;;9.77;;
67191;SDS011;54120;53.504;49.426;2023-03-19T17:05:54;13.07;;;11.25;;
67191;SDS011;54120;53.504;49.426;2023-03-19T17:08:21;13.40;;;10.32;;
67191;SDS011;54120;53.504;49.426;2023-03-19T17:10:50;14.70;;;11.30;;